createdAt,value
2018-02-23T00:00:33.432Z,-3.90
2018-02-23T00:03:05.557Z,-4.00
2018-02-23T00:05:37.112Z,-4.00
2018-02-23T00:08:06.384Z,-4.00
2018-02-23T00:10:42.504Z,-4.10
2018-02-23T00:13:11.576Z,-4.20
2018-02-23T00:15:43.769Z,-4.30
2018-02-23T00:18:11.840Z,-4.30
2018-02-23T00:20:39.910Z,-4.40
2018-02-23T00:23:07.953Z,-4.40
2018-02-23T00:25:39.580Z,-4.50
2018-02-23T00:28:12.276Z,-4.50
2018-02-23T00:30:42.201Z,-4.50
2018-02-23T00:33:11.772Z,-4.60
2018-02-23T00:35:40.788Z,-4.60
2018-02-23T00:38:13.725Z,-4.50
2018-02-23T00:40:43.685Z,-4.60
2018-02-23T00:43:14.673Z,-4.90
2018-02-23T00:45:47.048Z,-4.90
2018-02-23T00:48:16.421Z,-4.90
2018-02-23T00:50:47.736Z,-4.90
2018-02-23T00:53:31.036Z,-4.70
2018-02-23T00:56:00.068Z,-4.80
2018-02-23T00:58:29.582Z,-4.60
2018-02-23T01:01:00.304Z,-4.60
2018-02-23T01:03:40.504Z,-4.70
2018-02-23T01:06:10.516Z,-4.70
2018-02-23T01:08:46.936Z,-4.90
2018-02-23T01:11:15.816Z,-4.90
2018-02-23T01:13:45.168Z,-4.90
2018-02-23T01:16:17.508Z,-5.00
2018-02-23T01:18:46.528Z,-5.10
2018-02-23T01:21:20.536Z,-4.90
2018-02-23T01:23:51.161Z,-4.90
2018-02-23T01:26:22.276Z,-4.90
2018-02-23T01:28:55.824Z,-5.10
2018-02-23T01:31:37.024Z,-5.00
2018-02-23T01:34:06.072Z,-5.10
2018-02-23T01:36:35.179Z,-5.00
2018-02-23T01:39:05.151Z,-5.00
2018-02-23T01:41:46.544Z,-5.00
2018-02-23T01:44:17.752Z,-5.00
2018-02-23T01:46:47.816Z,-5.00
2018-02-23T01:49:16.829Z,-5.00
2018-02-23T01:51:45.932Z,-5.10
2018-02-23T01:54:19.476Z,-5.20
2018-02-23T01:56:47.540Z,-5.20
2018-02-23T01:59:17.592Z,-5.20
2018-02-23T02:01:49.260Z,-5.10
2018-02-23T02:04:17.388Z,-5.10
2018-02-23T02:06:47.200Z,-5.10
2018-02-23T02:09:17.968Z,-5.20
2018-02-23T02:11:54.603Z,-5.20
2018-02-23T02:14:22.660Z,-5.20
2018-02-23T02:16:51.728Z,-5.30
2018-02-23T02:19:21.685Z,-5.40
2018-02-23T02:21:56.284Z,-5.40
2018-02-23T02:24:39.599Z,-5.40
2018-02-23T02:27:07.649Z,-5.40
2018-02-23T02:29:35.696Z,-5.20
2018-02-23T02:32:03.771Z,-5.20
2018-02-23T02:34:39.527Z,-5.10
2018-02-23T02:37:09.353Z,-5.20
2018-02-23T02:39:37.760Z,-5.20
2018-02-23T02:42:14.280Z,-5.30
2018-02-23T02:44:42.336Z,-5.40
2018-02-23T02:47:14.624Z,-5.70
2018-02-23T02:49:50.071Z,-5.70
2018-02-23T02:52:26.707Z,-5.90
2018-02-23T02:55:01.289Z,-5.90
2018-02-23T02:57:39.115Z,-5.80
2018-02-23T03:00:08.186Z,-5.90
2018-02-23T03:02:48.244Z,-5.70
2018-02-23T03:05:17.299Z,-5.60
2018-02-23T03:07:56.588Z,-5.40
2018-02-23T03:10:24.652Z,-5.60
2018-02-23T03:12:53.712Z,-5.50
2018-02-23T03:15:39.327Z,-5.40
2018-02-23T03:18:14.148Z,-5.50
2018-02-23T03:20:49.736Z,-5.50
2018-02-23T03:23:26.512Z,-5.40
2018-02-23T03:25:55.348Z,-5.40
2018-02-23T03:28:24.596Z,-5.40
2018-02-23T03:30:58.840Z,-5.60
2018-02-23T03:33:34.259Z,-5.60
2018-02-23T03:36:10.925Z,-5.60
2018-02-23T03:38:39.926Z,-5.50
2018-02-23T03:41:12.484Z,-5.40
2018-02-23T03:43:40.636Z,-5.40
2018-02-23T03:46:08.656Z,-5.30
2018-02-23T03:48:40.524Z,-5.30
2018-02-23T03:51:10.508Z,-5.30
2018-02-23T03:53:46.412Z,-5.40
2018-02-23T03:56:22.173Z,-5.40
2018-02-23T03:58:53.388Z,-5.30
2018-02-23T04:01:23.579Z,-5.30
2018-02-23T04:03:58.220Z,-5.40
2018-02-23T04:06:29.228Z,-5.50
2018-02-23T04:08:57.332Z,-5.40
2018-02-23T04:11:26.375Z,-5.40
2018-02-23T04:13:58.443Z,-5.50
2018-02-23T04:16:36.755Z,-5.50
2018-02-23T04:19:05.780Z,-5.50
2018-02-23T04:21:38.419Z,-5.50
2018-02-23T04:24:13.743Z,-5.50
2018-02-23T04:26:55.519Z,-5.50
2018-02-23T04:29:31.608Z,-5.50
2018-02-23T04:32:03.202Z,-5.50
2018-02-23T04:34:33.931Z,-5.50
2018-02-23T04:37:05.599Z,-5.60
2018-02-23T04:39:35.611Z,-5.60
2018-02-23T04:42:04.403Z,-5.50
2018-02-23T04:44:33.351Z,-5.50
2018-02-23T04:47:12.771Z,-5.50
2018-02-23T04:49:44.771Z,-5.50
2018-02-23T04:52:12.808Z,-5.50
2018-02-23T04:54:40.844Z,-5.60
2018-02-23T04:57:17.167Z,-5.60
2018-02-23T04:59:52.927Z,-5.50
2018-02-23T05:02:21.924Z,-5.50
2018-02-23T05:04:52.646Z,-5.50
2018-02-23T05:07:20.676Z,-5.60
2018-02-23T05:09:49.801Z,-5.60
2018-02-23T05:12:18.819Z,-5.60
2018-02-23T05:14:48.609Z,-5.40
2018-02-23T05:17:19.338Z,-5.40
2018-02-23T05:19:50.613Z,-5.40
2018-02-23T05:22:21.324Z,-5.50
2018-02-23T05:24:51.359Z,-5.50
2018-02-23T05:27:21.163Z,-5.50
2018-02-23T05:29:51.907Z,-5.50
2018-02-23T05:32:19.959Z,-5.50
2018-02-23T05:34:47.987Z,-5.50
2018-02-23T05:37:24.607Z,-5.60
2018-02-23T05:39:54.623Z,-5.60
2018-02-23T05:42:23.427Z,-5.60
2018-02-23T05:44:52.211Z,-5.50
2018-02-23T05:47:20.281Z,-5.50
2018-02-23T05:49:50.275Z,-5.50
2018-02-23T05:52:22.771Z,-5.60
2018-02-23T05:54:51.739Z,-5.60
2018-02-23T05:57:29.051Z,-5.60
2018-02-23T05:59:57.146Z,-5.60
2018-02-23T06:02:34.983Z,-5.70
2018-02-23T06:05:05.007Z,-5.70
2018-02-23T06:07:35.763Z,-5.70
2018-02-23T06:10:06.599Z,-5.80
2018-02-23T06:12:36.383Z,-5.70
2018-02-23T06:15:12.727Z,-5.70
2018-02-23T06:20:51.735Z,-5.60
2018-02-23T06:23:19.780Z,-5.60
2018-02-23T06:25:47.811Z,-5.50
2018-02-23T06:28:16.855Z,-5.50
2018-02-23T06:30:52.558Z,-5.50
2018-02-23T06:33:25.675Z,-5.50
2018-02-23T06:35:59.435Z,-5.50
2018-02-23T06:38:27.483Z,-5.50
2018-02-23T06:40:56.455Z,-5.40
2018-02-23T06:43:25.251Z,-5.30
2018-02-23T06:45:53.321Z,-5.30
2018-02-23T06:48:21.366Z,-5.30
2018-02-23T06:50:50.356Z,-5.20
2018-02-23T06:53:18.391Z,-5.20
2018-02-23T06:55:50.284Z,-5.10
2018-02-23T06:58:18.306Z,-5.00
2018-02-23T07:00:56.850Z,-5.00
2018-02-23T07:03:25.859Z,-5.00
2018-02-23T07:05:54.791Z,-5.00
2018-02-23T07:08:23.839Z,-4.90
2018-02-23T07:10:57.553Z,-4.90
2018-02-23T07:13:33.270Z,-4.80
2018-02-23T07:16:04.439Z,-4.80
2018-02-23T07:18:34.474Z,-4.80
2018-02-23T07:21:02.515Z,-4.70
2018-02-23T07:23:31.522Z,-4.70
2018-02-23T07:26:05.048Z,-4.70
2018-02-23T07:28:34.010Z,-4.60
2018-02-23T07:31:08.286Z,-4.60
2018-02-23T07:33:39.562Z,-4.60
2018-02-23T07:36:07.598Z,-4.50
2018-02-23T07:38:39.314Z,-4.50
2018-02-23T07:41:08.106Z,-4.40
2018-02-23T07:43:37.790Z,-4.30
2018-02-23T07:46:12.430Z,-4.40
2018-02-23T07:48:47.723Z,-4.20
2018-02-23T07:51:17.650Z,-4.20
2018-02-23T07:53:49.997Z,-4.30
2018-02-23T07:56:21.538Z,-4.20
2018-02-23T07:58:49.560Z,-4.20
2018-02-23T08:01:17.590Z,-4.10
2018-02-23T08:03:45.875Z,-4.00
2018-02-23T08:06:13.875Z,-3.90
2018-02-23T08:09:01.043Z,-3.80
2018-02-23T08:11:29.062Z,-3.70
2018-02-23T08:13:57.090Z,-3.60
2018-02-23T08:16:29.686Z,-3.50
2018-02-23T08:19:00.658Z,-3.50
2018-02-23T08:21:29.570Z,-3.50
2018-02-23T08:24:01.226Z,-3.40
2018-02-23T08:26:35.645Z,-3.30
2018-02-23T08:29:04.594Z,-3.20
2018-02-23T08:34:30.550Z,-3.20
2018-02-23T08:37:10.050Z,-3.20
2018-02-23T08:39:38.086Z,-3.20
2018-02-23T08:42:06.114Z,-3.00
2018-02-23T08:44:34.142Z,-2.80
2018-02-23T08:47:11.568Z,-2.80
2018-02-23T08:49:40.474Z,-2.70
2018-02-23T08:52:08.502Z,-2.60
2018-02-23T08:54:42.762Z,-2.60
2018-02-23T08:57:11.693Z,-2.50
2018-02-23T08:59:54.314Z,-2.40
2018-02-23T09:02:24.269Z,-2.20
2018-02-23T09:04:52.298Z,-2.00
2018-02-23T09:07:34.545Z,-2.20
2018-02-23T09:10:02.570Z,-2.20
2018-02-23T09:12:36.563Z,-2.00
2018-02-23T09:15:06.390Z,-1.90
2018-02-23T09:17:51.330Z,-1.80
2018-02-23T09:23:14.542Z,-1.90
2018-02-23T09:25:49.526Z,-1.90
2018-02-23T09:28:28.510Z,-1.80
2018-02-23T09:30:59.894Z,-1.80
2018-02-23T09:36:39.509Z,-0.10
2018-02-23T09:39:25.898Z,-0.10
2018-02-23T09:41:53.913Z,0.30
2018-02-23T09:44:36.409Z,1.20
2018-02-23T09:47:16.637Z,1.80
2018-02-23T09:49:56.514Z,1.80
2018-02-23T09:52:30.425Z,1.70
2018-02-23T09:55:02.610Z,1.80
2018-02-23T09:57:47.018Z,2.00
2018-02-23T10:00:19.430Z,2.00
2018-02-23T10:02:54.862Z,2.50
2018-02-23T10:05:23.806Z,2.80
2018-02-23T10:07:53.730Z,2.80
2018-02-23T10:10:22.777Z,2.50
2018-02-23T10:12:50.798Z,2.50
2018-02-23T10:15:24.593Z,2.70
2018-02-23T10:18:10.826Z,2.50
2018-02-23T10:20:52.862Z,2.00
2018-02-23T10:23:23.557Z,2.70
2018-02-23T10:26:04.798Z,2.70
2018-02-23T10:28:32.825Z,2.90
2018-02-23T10:31:05.598Z,3.00
2018-02-23T10:33:33.638Z,3.00
2018-02-23T10:36:07.274Z,2.80
2018-02-23T10:38:35.305Z,2.80
2018-02-23T10:41:10.655Z,2.90
2018-02-23T10:43:51.266Z,3.20
2018-02-23T10:46:24.893Z,3.40
2018-02-23T10:48:53.837Z,3.70
2018-02-23T10:51:22.822Z,3.80
2018-02-23T10:53:57.449Z,4.40
2018-02-23T10:56:30.489Z,5.60
2018-02-23T10:58:58.521Z,5.90
2018-02-23T11:01:33.630Z,5.50
2018-02-23T11:04:01.669Z,5.60
2018-02-23T11:06:29.693Z,5.40
2018-02-23T11:09:01.346Z,5.70
2018-02-23T11:11:29.377Z,5.40
2018-02-23T11:14:10.521Z,5.50
2018-02-23T11:16:44.108Z,5.60
2018-02-23T11:19:18.725Z,4.60
2018-02-23T11:21:56.613Z,4.70
2018-02-23T11:24:31.085Z,4.30
2018-02-23T11:27:00.030Z,4.00
2018-02-23T11:29:29.022Z,3.70
2018-02-23T11:32:04.441Z,4.60
2018-02-23T11:34:36.277Z,5.40
2018-02-23T11:37:06.221Z,5.60
2018-02-23T11:39:40.700Z,6.00
2018-02-23T11:42:10.673Z,5.80
2018-02-23T11:44:38.701Z,5.60
2018-02-23T11:47:09.793Z,5.70
2018-02-23T11:49:38.777Z,5.20
2018-02-23T11:52:10.645Z,5.40
2018-02-23T11:54:40.557Z,5.50
2018-02-23T11:57:10.573Z,5.00
2018-02-23T11:59:38.597Z,5.20
2018-02-23T12:02:10.805Z,4.50
2018-02-23T12:04:40.830Z,4.70
2018-02-23T12:07:09.821Z,5.10
2018-02-23T12:09:37.857Z,5.30
2018-02-23T12:12:06.876Z,5.80
2018-02-23T12:14:40.681Z,6.00
2018-02-23T12:17:08.712Z,6.30
2018-02-23T12:19:44.273Z,6.80
2018-02-23T12:22:12.300Z,5.90
2018-02-23T12:24:43.229Z,6.10
2018-02-23T12:27:13.025Z,6.50
2018-02-23T12:29:41.054Z,6.50
2018-02-23T12:32:12.953Z,6.50
2018-02-23T12:34:41.045Z,6.40
2018-02-23T12:37:14.429Z,5.50
2018-02-23T12:39:43.401Z,5.50
2018-02-23T12:42:11.422Z,5.70
2018-02-23T12:44:39.498Z,5.80
2018-02-23T12:47:10.180Z,5.20
2018-02-23T12:49:38.201Z,5.10
2018-02-23T12:52:06.241Z,5.20
2018-02-23T12:54:38.717Z,5.70
2018-02-23T12:57:10.436Z,7.10
2018-02-23T12:59:38.473Z,7.10
2018-02-23T13:02:07.533Z,7.40
2018-02-23T13:04:36.340Z,7.10
2018-02-23T13:07:04.372Z,7.10
2018-02-23T13:09:34.380Z,6.80
2018-02-23T13:12:02.424Z,7.10
2018-02-23T13:14:36.997Z,7.30
2018-02-23T13:17:07.013Z,6.90
2018-02-23T13:19:35.848Z,6.10
2018-02-23T13:22:03.865Z,6.10
2018-02-23T13:24:34.584Z,6.90
2018-02-23T13:27:11.317Z,6.90
2018-02-23T13:29:39.337Z,6.40
2018-02-23T13:32:07.365Z,5.80
2018-02-23T13:34:37.320Z,5.90
2018-02-23T13:37:09.069Z,6.60
2018-02-23T13:39:50.121Z,6.60
2018-02-23T13:42:18.165Z,7.10
2018-02-23T13:44:46.196Z,7.10
2018-02-23T13:47:14.230Z,7.50
2018-02-23T13:49:42.260Z,7.50
2018-02-23T13:52:11.249Z,6.40
2018-02-23T13:54:41.228Z,5.70
2018-02-23T13:57:10.157Z,5.70
2018-02-23T13:59:38.192Z,5.60
2018-02-23T14:02:06.217Z,6.00
2018-02-23T14:04:34.253Z,6.60
2018-02-23T14:07:10.528Z,6.50
2018-02-23T14:09:40.304Z,6.60
2018-02-23T14:12:10.227Z,6.60
2018-02-23T14:14:38.249Z,6.10
2018-02-23T14:17:09.992Z,5.80
2018-02-23T14:19:41.596Z,5.90
2018-02-23T14:22:09.637Z,6.10
2018-02-23T14:24:37.685Z,6.30
2018-02-23T14:27:05.717Z,6.40
2018-02-23T14:29:34.705Z,7.00
2018-02-23T14:32:02.733Z,7.10
2018-02-23T14:34:30.820Z,7.30
2018-02-23T14:37:00.764Z,7.50
2018-02-23T14:39:30.772Z,6.10
2018-02-23T14:42:11.260Z,5.50
2018-02-23T14:44:41.142Z,5.00
2018-02-23T14:47:10.075Z,5.30
2018-02-23T14:49:50.704Z,5.70
2018-02-23T14:52:18.724Z,5.70
2018-02-23T14:54:46.749Z,5.20
2018-02-23T14:57:18.609Z,4.80
2018-02-23T14:59:46.669Z,4.60
2018-02-23T15:02:15.662Z,5.30
2018-02-23T15:04:44.100Z,4.60
2018-02-23T15:07:12.121Z,4.60
2018-02-23T15:09:43.253Z,4.30
2018-02-23T15:12:12.177Z,4.30
2018-02-23T15:14:41.956Z,4.50
2018-02-23T15:17:10.953Z,4.50
2018-02-23T15:19:39.884Z,4.40
2018-02-23T15:22:08.661Z,3.70
2018-02-23T15:24:36.680Z,3.60
2018-02-23T15:27:11.140Z,3.20
2018-02-23T15:29:39.125Z,3.20
2018-02-23T15:32:19.792Z,3.20
2018-02-23T15:34:47.824Z,3.20
2018-02-23T15:37:25.836Z,3.00
2018-02-23T15:39:55.856Z,3.00
2018-02-23T15:42:24.760Z,2.90
2018-02-23T15:44:55.464Z,2.80
2018-02-23T15:47:26.032Z,2.70
2018-02-23T15:50:05.071Z,2.60
2018-02-23T15:52:33.085Z,2.50
2018-02-23T15:55:02.010Z,2.20
2018-02-23T15:57:33.674Z,0.90
2018-02-23T16:00:03.349Z,0.50
2018-02-23T16:02:32.353Z,0.50
2018-02-23T16:05:01.344Z,0.20
2018-02-23T16:07:30.324Z,0.10
2018-02-23T16:10:05.232Z,-0.10
2018-02-23T16:12:33.260Z,-0.20
2018-02-23T16:15:03.241Z,-0.30
2018-02-23T16:17:37.045Z,-0.40
2018-02-23T16:20:06.046Z,-0.40
2018-02-23T16:22:34.125Z,-0.50
2018-02-23T16:25:09.765Z,-0.60
2018-02-23T16:27:42.492Z,-0.70
2018-02-23T16:30:10.513Z,-0.80
2018-02-23T16:32:44.373Z,-0.90
2018-02-23T16:35:12.940Z,-0.90
2018-02-23T16:37:44.388Z,-1.00
2018-02-23T16:40:18.256Z,-1.00
2018-02-23T16:42:49.912Z,-1.10
2018-02-23T16:45:18.840Z,-1.10
2018-02-23T16:47:48.748Z,-1.20
2018-02-23T16:50:17.544Z,-1.30
2018-02-23T16:52:59.884Z,-1.30
2018-02-23T16:55:33.264Z,-1.40
2018-02-23T16:58:06.032Z,-1.50
2018-02-23T17:00:38.868Z,-1.40
2018-02-23T17:03:10.824Z,-1.40
2018-02-23T17:05:38.876Z,-1.50
2018-02-23T17:08:10.552Z,-1.50
2018-02-23T17:10:38.580Z,-1.50
2018-02-23T17:13:06.616Z,-1.60
2018-02-23T17:15:47.800Z,-1.60
2018-02-23T17:18:20.960Z,-1.70
2018-02-23T17:21:08.056Z,-1.70
2018-02-23T17:23:36.088Z,-1.70
2018-02-23T17:26:09.146Z,-1.70
2018-02-23T17:28:41.820Z,-1.70
2018-02-23T17:31:11.872Z,-1.80
2018-02-23T17:33:44.404Z,-1.80
2018-02-23T17:36:14.059Z,-1.80
2018-02-23T17:38:43.404Z,-1.90
2018-02-23T17:41:12.320Z,-1.80
2018-02-23T17:43:42.328Z,-1.80
2018-02-23T17:46:10.375Z,-1.90
2018-02-23T17:48:38.401Z,-1.90
2018-02-23T17:51:13.988Z,-1.90
2018-02-23T17:53:42.923Z,-2.00
2018-02-23T17:56:11.707Z,-2.00
2018-02-23T17:58:40.523Z,-2.00
2018-02-23T18:01:09.472Z,-2.00
2018-02-23T18:03:40.843Z,-2.10
2018-02-23T18:06:10.798Z,-2.10
2018-02-23T18:08:40.539Z,-2.10
2018-02-23T18:11:09.536Z,-2.20
2018-02-23T18:13:38.564Z,-2.10
2018-02-23T18:16:06.556Z,-2.10
2018-02-23T18:18:34.587Z,-2.10
2018-02-23T18:21:08.331Z,-2.20
2018-02-23T18:23:42.228Z,-2.20
2018-02-23T18:26:16.976Z,-2.20
2018-02-23T18:28:47.032Z,-2.30
2018-02-23T18:31:22.744Z,-2.30
2018-02-23T18:33:51.768Z,-2.30
2018-02-23T18:36:23.748Z,-2.40
2018-02-23T18:38:56.551Z,-2.40
2018-02-23T18:41:35.003Z,-2.40
2018-02-23T18:44:03.032Z,-2.30
2018-02-23T18:46:31.991Z,-2.40
2018-02-23T18:49:00.980Z,-2.40
2018-02-23T18:51:29.991Z,-2.40
2018-02-23T18:54:04.867Z,-2.50
2018-02-23T18:56:49.503Z,-2.50
2018-02-23T18:59:21.824Z,-2.50
2018-02-23T19:02:08.059Z,-2.70
2018-02-23T19:04:56.335Z,-2.60
2018-02-23T19:07:29.121Z,-2.50
2018-02-23T19:10:01.419Z,-2.60
2018-02-23T19:12:29.436Z,-2.60
2018-02-23T19:15:00.539Z,-2.60
2018-02-23T19:17:30.459Z,-2.60
2018-02-23T19:20:00.152Z,-2.60
2018-02-23T19:22:33.059Z,-2.60
2018-02-23T19:25:01.868Z,-2.60
2018-02-23T19:27:40.415Z,-2.70
2018-02-23T19:30:09.336Z,-2.70
2018-02-23T19:32:41.187Z,-2.70
2018-02-23T19:35:09.235Z,-2.80
2018-02-23T19:37:42.615Z,-2.80
2018-02-23T19:40:10.680Z,-2.90
2018-02-23T19:42:40.710Z,-2.90
2018-02-23T19:45:10.031Z,-3.00
2018-02-23T19:47:38.830Z,-3.00
2018-02-23T19:50:12.368Z,-3.00
2018-02-23T19:52:46.371Z,-3.00
2018-02-23T19:55:20.858Z,-3.00
2018-02-23T19:57:48.899Z,-3.10
2018-02-23T20:00:16.951Z,-3.00
2018-02-23T20:02:50.719Z,-3.00
2018-02-23T20:05:18.783Z,-3.10
2018-02-23T20:07:50.547Z,-3.00
2018-02-23T20:10:20.901Z,-3.00
2018-02-23T20:12:49.016Z,-3.10
2018-02-23T20:15:19.419Z,-3.00
2018-02-23T20:17:48.451Z,-3.00
2018-02-23T20:20:17.500Z,-3.10
2018-02-23T20:22:46.275Z,-3.30
2018-02-23T20:25:16.271Z,-3.30
2018-02-23T20:27:45.243Z,-3.20
2018-02-23T20:30:22.983Z,-3.20
2018-02-23T20:32:56.775Z,-3.20
2018-02-23T20:35:25.739Z,-3.30
2018-02-23T20:37:56.479Z,-3.30
2018-02-23T20:40:29.666Z,-3.30
2018-02-23T20:42:58.710Z,-3.30
2018-02-23T20:45:28.671Z,-3.40
2018-02-23T20:47:56.715Z,-3.40
2018-02-23T20:50:28.902Z,-3.30
2018-02-23T20:52:56.934Z,-3.40
2018-02-23T20:55:25.983Z,-3.40
2018-02-23T20:57:54.039Z,-3.30
2018-02-23T21:00:23.051Z,-3.40
2018-02-23T21:02:51.863Z,-3.40
2018-02-23T21:05:21.871Z,-3.40
2018-02-23T21:07:50.818Z,-3.40
2018-02-23T21:10:18.904Z,-3.40
2018-02-23T21:12:53.615Z,-3.40
2018-02-23T21:15:21.644Z,-3.50
2018-02-23T21:17:50.690Z,-3.50
2018-02-23T21:20:18.744Z,-3.60
2018-02-23T21:22:46.819Z,-3.70
2018-02-23T21:25:16.871Z,-3.70
2018-02-23T21:27:45.871Z,-3.60
2018-02-23T21:30:15.859Z,-3.60
2018-02-23T21:32:50.263Z,-3.60
2018-02-23T21:35:19.311Z,-3.60
2018-02-23T21:37:53.818Z,-3.70
2018-02-23T21:40:22.331Z,-3.70
2018-02-23T21:42:52.322Z,-3.70
2018-02-23T21:45:26.611Z,-3.80
2018-02-23T21:47:54.687Z,-3.70
2018-02-23T21:50:22.731Z,-3.80
2018-02-23T21:52:58.738Z,-3.90
2018-02-23T21:55:26.863Z,-3.90
2018-02-23T21:57:54.955Z,-3.90
2018-02-23T22:00:27.330Z,-4.10
2018-02-23T22:02:56.179Z,-4.10
2018-02-23T22:05:26.274Z,-4.10
2018-02-23T22:07:54.332Z,-4.20
2018-02-23T22:10:25.154Z,-4.10
2018-02-23T22:12:54.166Z,-4.10
2018-02-23T22:15:22.195Z,-4.10
2018-02-23T22:17:51.218Z,-4.00
2018-02-23T22:20:19.267Z,-4.10
2018-02-23T22:22:49.114Z,-4.10
2018-02-23T22:25:17.175Z,-4.20
2018-02-23T22:27:51.466Z,-4.20
2018-02-23T22:30:20.474Z,-4.20
2018-02-23T22:32:49.487Z,-4.20
2018-02-23T22:35:18.527Z,-4.20
2018-02-23T22:37:51.295Z,-4.20
2018-02-23T22:40:21.382Z,-4.20
2018-02-23T22:42:50.327Z,-4.30
2018-02-23T22:45:19.138Z,-4.30
2018-02-23T22:47:48.123Z,-4.30
2018-02-23T22:50:16.914Z,-4.30
2018-02-23T22:52:46.918Z,-4.40
2018-02-23T22:55:14.951Z,-4.30
2018-02-23T22:57:44.710Z,-4.30
2018-02-23T23:00:13.806Z,-4.30
2018-02-23T23:02:43.795Z,-4.30
2018-02-23T23:05:11.822Z,-4.30
2018-02-23T23:07:47.134Z,-4.40
2018-02-23T23:10:18.841Z,-4.40
2018-02-23T23:12:46.874Z,-4.40
2018-02-23T23:15:21.318Z,-4.40
2018-02-23T23:17:49.360Z,-4.40
2018-02-23T23:20:19.326Z,-4.40
2018-02-23T23:22:48.274Z,-4.50
2018-02-23T23:25:17.338Z,-4.50
2018-02-23T23:27:45.443Z,-4.50
2018-02-23T23:30:18.326Z,-4.60
2018-02-23T23:32:46.398Z,-4.60
2018-02-23T23:35:22.395Z,-4.60
2018-02-23T23:37:50.454Z,-4.70
2018-02-23T23:40:18.562Z,-4.60
2018-02-23T23:42:48.255Z,-4.80
2018-02-23T23:45:17.090Z,-4.80
2018-02-23T23:47:45.209Z,-4.80
2018-02-23T23:50:13.206Z,-4.70
2018-02-23T23:52:46.625Z,-4.90
2018-02-23T23:55:18.678Z,-4.90
2018-02-23T23:57:50.326Z,-4.80
